createdAt,value
2022-09-25T00:00:41.079Z,28.17
2022-09-25T00:03:14.974Z,22.30
2022-09-25T00:05:49.397Z,22.08
2022-09-25T00:08:21.051Z,24.25
2022-09-25T00:10:52.694Z,26.10
2022-09-25T00:13:24.305Z,22.70
2022-09-25T00:15:57.375Z,25.05
2022-09-25T00:18:55.678Z,23.88
2022-09-25T00:21:31.112Z,20.75
2022-09-25T00:24:13.187Z,22.90
2022-09-25T00:26:44.930Z,24.48
2022-09-25T00:29:20.422Z,23.27
2022-09-25T00:31:58.177Z,27.90
2022-09-25T00:34:32.291Z,21.42
2022-09-25T00:37:04.520Z,21.88
2022-09-25T00:39:42.178Z,19.98
2022-09-25T00:42:19.250Z,25.73
2022-09-25T00:44:58.913Z,23.60
2022-09-25T00:48:03.193Z,23.73
2022-09-25T00:50:52.474Z,23.17
2022-09-25T00:53:31.566Z,24.05
2022-09-25T00:56:05.226Z,21.85
2022-09-25T00:58:40.344Z,23.92
2022-09-25T01:01:12.227Z,25.45
2022-09-25T01:03:46.610Z,23.10
2022-09-25T01:06:18.750Z,23.58
2022-09-25T01:08:57.678Z,22.50
2022-09-25T01:11:31.097Z,24.33
2022-09-25T01:14:05.955Z,23.80
2022-09-25T01:16:52.004Z,23.42
2022-09-25T01:19:40.959Z,24.98
2022-09-25T01:22:46.364Z,23.20
2022-09-25T01:25:23.959Z,24.98
2022-09-25T01:28:39.560Z,21.67
2022-09-25T01:31:22.246Z,28.13
2022-09-25T01:34:03.911Z,27.08
2022-09-25T01:36:41.659Z,28.75
2022-09-25T01:39:32.464Z,25.65
2022-09-25T01:42:23.694Z,24.10
2022-09-25T01:45:04.238Z,28.35
2022-09-25T01:47:41.720Z,24.65
2022-09-25T01:50:28.642Z,23.92
2022-09-25T01:53:07.409Z,26.20
2022-09-25T01:55:49.218Z,30.98
2022-09-25T01:58:35.702Z,28.50
2022-09-25T02:01:18.055Z,27.55
2022-09-25T02:04:04.733Z,28.83
2022-09-25T02:06:38.496Z,31.77
2022-09-25T02:09:19.041Z,28.70
2022-09-25T02:11:56.352Z,30.70
2022-09-25T02:14:40.152Z,27.95
2022-09-25T02:17:34.985Z,33.33
2022-09-25T02:20:26.585Z,31.63
2022-09-25T02:23:23.659Z,26.88
2022-09-25T02:26:08.654Z,27.35
2022-09-25T02:28:45.643Z,27.50
2022-09-25T02:31:19.516Z,27.75
2022-09-25T02:33:51.527Z,27.58
2022-09-25T02:36:24.130Z,28.17
2022-09-25T02:38:56.320Z,27.17
2022-09-25T02:41:43.828Z,25.13
2022-09-25T02:44:33.639Z,27.10
2022-09-25T02:47:43.643Z,26.92
2022-09-25T02:50:37.271Z,24.58
2022-09-25T02:53:20.839Z,26.13
2022-09-25T02:56:35.182Z,25.77
2022-09-25T02:59:34.167Z,26.30
2022-09-25T03:02:08.996Z,27.90
2022-09-25T03:04:42.418Z,26.90
2022-09-25T03:07:15.898Z,28.38
2022-09-25T03:09:54.994Z,28.00
2022-09-25T03:12:28.618Z,28.33
2022-09-25T03:15:00.219Z,25.90
2022-09-25T03:17:33.680Z,25.17
2022-09-25T03:20:07.128Z,23.40
2022-09-25T03:22:39.636Z,25.75
2022-09-25T03:25:11.209Z,27.98
2022-09-25T03:27:46.858Z,28.17
2022-09-25T03:30:18.796Z,26.65
2022-09-25T03:32:50.425Z,24.35
2022-09-25T03:35:22.067Z,24.48
2022-09-25T03:38:00.501Z,25.38
2022-09-25T03:40:35.215Z,22.58
2022-09-25T03:45:41.904Z,25.52
2022-09-25T03:48:13.550Z,26.13
2022-09-25T03:50:46.171Z,26.10
2022-09-25T03:53:20.649Z,25.48
2022-09-25T03:55:52.604Z,27.98
2022-09-25T03:58:25.292Z,24.45
2022-09-25T04:00:57.740Z,25.27
2022-09-25T04:03:32.836Z,25.48
2022-09-25T04:06:05.881Z,25.17
2022-09-25T04:08:38.162Z,22.73
2022-09-25T04:11:10.799Z,25.20
2022-09-25T04:13:43.599Z,25.88
2022-09-25T04:16:21.697Z,25.80
2022-09-25T04:18:53.375Z,24.58
2022-09-25T04:21:50.002Z,22.70
2022-09-25T04:24:40.113Z,26.38
2022-09-25T04:27:11.704Z,28.13
2022-09-25T04:29:43.444Z,25.88
2022-09-25T04:32:35.011Z,26.98
2022-09-25T04:35:09.774Z,26.38
2022-09-25T04:37:41.405Z,26.67
2022-09-25T04:40:13.103Z,25.40
2022-09-25T04:42:44.749Z,26.98
2022-09-25T04:45:16.395Z,26.38
2022-09-25T04:47:47.993Z,25.45
2022-09-25T04:50:23.246Z,23.38
2022-09-25T04:52:57.198Z,25.42
2022-09-25T04:55:29.272Z,28.17
2022-09-25T04:58:04.388Z,25.50
2022-09-25T05:00:37.512Z,25.55
2022-09-25T05:03:09.470Z,24.38
2022-09-25T05:05:41.245Z,29.27
2022-09-25T05:08:12.894Z,30.50
2022-09-25T05:10:44.637Z,28.88
2022-09-25T05:13:16.227Z,27.08
2022-09-25T05:15:47.898Z,24.92
2022-09-25T05:18:24.885Z,24.05
2022-09-25T05:20:58.030Z,26.38
2022-09-25T05:23:32.785Z,27.90
2022-09-25T05:28:38.958Z,28.90
2022-09-25T05:33:46.327Z,27.02
2022-09-25T05:36:19.096Z,30.65
2022-09-25T05:38:50.942Z,25.33
2022-09-25T05:41:24.650Z,27.83
2022-09-25T05:43:57.493Z,28.17
2022-09-25T05:46:29.111Z,27.10
2022-09-25T05:49:01.233Z,25.38
2022-09-25T05:51:32.985Z,24.85
2022-09-25T05:54:05.000Z,25.10
2022-09-25T05:56:39.607Z,28.20
2022-09-25T06:01:43.012Z,21.77
2022-09-25T06:04:14.635Z,23.92
2022-09-25T06:06:46.350Z,21.90
2022-09-25T06:09:23.441Z,22.42
2022-09-25T06:11:57.186Z,20.17
2022-09-25T06:14:28.898Z,18.70
2022-09-25T06:20:00.570Z,23.45
2022-09-25T06:22:32.953Z,19.42
2022-09-25T06:25:05.300Z,18.05
2022-09-25T06:27:40.576Z,18.27
2022-09-25T06:30:12.528Z,22.92
2022-09-25T06:32:44.413Z,20.58
2022-09-25T06:35:18.335Z,17.63
2022-09-25T06:37:58.261Z,17.48
2022-09-25T06:40:31.612Z,20.27
2022-09-25T06:43:04.687Z,17.73
2022-09-25T06:45:39.446Z,18.38
2022-09-25T06:48:16.295Z,15.95
2022-09-25T06:50:55.189Z,14.77
2022-09-25T06:53:27.129Z,18.70
2022-09-25T06:55:59.965Z,18.63
2022-09-25T06:58:31.691Z,18.15
2022-09-25T07:01:09.109Z,15.90
2022-09-25T07:03:51.182Z,13.52
2022-09-25T07:06:26.568Z,18.73
2022-09-25T07:08:58.270Z,15.27
2022-09-25T07:11:31.378Z,17.35
2022-09-25T07:14:04.182Z,15.35
2022-09-25T07:16:36.227Z,15.80
2022-09-25T07:19:09.344Z,14.43
2022-09-25T07:21:41.039Z,15.45
2022-09-25T07:24:12.744Z,13.15
2022-09-25T07:26:44.555Z,13.93
2022-09-25T07:29:16.474Z,15.00
2022-09-25T07:31:48.118Z,16.23
2022-09-25T07:34:19.916Z,13.00
2022-09-25T07:36:53.017Z,13.13
2022-09-25T07:39:24.770Z,15.02
2022-09-25T07:41:56.445Z,11.35
2022-09-25T07:44:29.404Z,14.00
2022-09-25T07:47:08.803Z,11.68
2022-09-25T07:49:41.349Z,12.60
2022-09-25T07:52:13.899Z,13.60
2022-09-25T07:54:45.555Z,14.18
2022-09-25T07:57:20.756Z,11.75
2022-09-25T07:59:52.415Z,15.02
2022-09-25T08:02:24.521Z,13.50
2022-09-25T08:04:56.355Z,16.98
2022-09-25T08:07:28.596Z,12.73
2022-09-25T08:10:00.510Z,13.27
2022-09-25T08:12:32.220Z,10.32
2022-09-25T08:15:04.279Z,9.98
2022-09-25T08:17:36.070Z,10.13
2022-09-25T08:20:08.377Z,10.43
2022-09-25T08:22:39.958Z,12.43
2022-09-25T08:25:13.125Z,13.95
2022-09-25T08:27:45.607Z,10.75
2022-09-25T08:30:17.963Z,12.63
2022-09-25T08:32:50.615Z,9.45
2022-09-25T08:35:22.385Z,12.35
2022-09-25T08:37:57.859Z,10.02
2022-09-25T08:40:39.881Z,11.90
2022-09-25T08:43:22.023Z,11.75
2022-09-25T08:46:16.587Z,12.40
2022-09-25T08:49:10.113Z,11.30
2022-09-25T08:51:48.829Z,11.55
2022-09-25T08:54:26.703Z,10.60
2022-09-25T08:57:35.168Z,13.90
2022-09-25T09:00:17.347Z,11.20
2022-09-25T09:02:54.682Z,9.50
2022-09-25T09:05:32.516Z,12.30
2022-09-25T09:08:09.726Z,10.70
2022-09-25T09:10:45.824Z,11.48
2022-09-25T09:13:24.708Z,9.23
2022-09-25T09:16:01.493Z,9.85
2022-09-25T09:18:39.567Z,9.90
2022-09-25T09:21:18.810Z,11.25
2022-09-25T09:24:06.206Z,10.43
2022-09-25T09:26:56.897Z,11.55
2022-09-25T09:29:55.052Z,10.38
2022-09-25T09:32:48.656Z,11.43
2022-09-25T09:35:53.621Z,10.75
2022-09-25T09:39:08.929Z,10.45
2022-09-25T09:44:37.117Z,14.60
2022-09-25T09:48:02.142Z,10.40
2022-09-25T09:50:53.178Z,10.32
2022-09-25T09:54:11.349Z,9.55
2022-09-25T09:56:47.808Z,11.57
2022-09-25T09:59:25.663Z,9.55
2022-09-25T10:02:13.748Z,9.07
2022-09-25T10:04:46.932Z,10.20
2022-09-25T10:07:22.893Z,9.73
2022-09-25T10:09:55.725Z,10.43
2022-09-25T10:12:36.034Z,10.55
2022-09-25T10:15:18.834Z,10.05
2022-09-25T10:17:50.875Z,14.48
2022-09-25T10:20:23.758Z,10.50
2022-09-25T10:22:56.655Z,10.63
2022-09-25T10:25:40.335Z,8.77
2022-09-25T10:28:32.769Z,9.85
2022-09-25T10:31:09.001Z,8.57
2022-09-25T10:33:40.733Z,10.80
2022-09-25T10:36:12.357Z,9.57
2022-09-25T10:38:43.879Z,7.45
2022-09-25T10:41:19.976Z,8.23
2022-09-25T10:43:53.787Z,9.75
2022-09-25T10:46:55.076Z,9.50
2022-09-25T10:49:46.954Z,7.57
2022-09-25T10:52:22.322Z,8.35
2022-09-25T10:55:14.764Z,8.82
2022-09-25T10:57:48.007Z,8.82
2022-09-25T11:00:24.450Z,9.23
2022-09-25T11:03:01.683Z,9.77
2022-09-25T11:05:38.402Z,8.70
2022-09-25T11:08:16.277Z,8.40
2022-09-25T11:10:57.049Z,8.27
2022-09-25T11:13:37.044Z,9.82
2022-09-25T11:16:10.320Z,10.23
2022-09-25T11:19:29.050Z,7.90
2022-09-25T11:22:08.042Z,7.18
2022-09-25T11:25:02.265Z,7.25
2022-09-25T11:27:43.732Z,8.35
2022-09-25T11:30:18.496Z,8.32
2022-09-25T11:32:58.434Z,8.82
2022-09-25T11:35:53.163Z,11.55
2022-09-25T11:38:52.337Z,9.40
2022-09-25T11:41:45.703Z,10.25
2022-09-25T11:44:31.478Z,8.40
2022-09-25T11:47:27.733Z,8.65
2022-09-25T11:50:02.246Z,7.90
2022-09-25T11:52:46.059Z,8.57
2022-09-25T11:55:45.862Z,9.53
2022-09-25T11:58:26.701Z,8.70
2022-09-25T12:01:16.878Z,7.53
2022-09-25T12:04:00.429Z,6.85
2022-09-25T12:06:53.268Z,9.55
2022-09-25T12:09:54.597Z,9.00
2022-09-25T12:12:35.310Z,8.07
2022-09-25T12:15:45.503Z,11.98
2022-09-25T12:18:22.703Z,9.65
2022-09-25T12:21:20.134Z,7.45
2022-09-25T12:24:07.919Z,8.32
2022-09-25T12:27:01.035Z,7.85
2022-09-25T12:29:39.856Z,9.48
2022-09-25T12:32:32.501Z,9.70
2022-09-25T12:35:29.510Z,8.82
2022-09-25T12:38:17.805Z,8.07
2022-09-25T12:41:01.156Z,8.18
2022-09-25T12:43:45.390Z,8.30
2022-09-25T12:46:39.196Z,8.10
2022-09-25T12:49:21.303Z,8.95
2022-09-25T12:51:59.678Z,9.40
2022-09-25T12:54:43.805Z,9.52
2022-09-25T12:57:26.361Z,8.35
2022-09-25T13:00:01.895Z,8.35
2022-09-25T13:02:40.968Z,8.35
2022-09-25T13:05:31.829Z,8.68
2022-09-25T13:08:25.711Z,9.02
2022-09-25T13:11:07.825Z,8.15
2022-09-25T13:13:47.235Z,7.25
2022-09-25T13:16:19.048Z,9.85
2022-09-25T13:19:12.877Z,9.27
2022-09-25T13:21:44.500Z,7.78
2022-09-25T13:24:17.630Z,7.18
2022-09-25T13:26:55.154Z,8.15
2022-09-25T13:29:31.229Z,8.73
2022-09-25T13:32:23.170Z,9.02
2022-09-25T13:34:58.543Z,7.65
2022-09-25T13:37:39.247Z,9.95
2022-09-25T13:40:46.102Z,8.18
2022-09-25T13:43:27.907Z,6.75
2022-09-25T13:46:19.291Z,5.10
2022-09-25T13:48:55.763Z,10.90
2022-09-25T13:51:35.517Z,7.10
2022-09-25T13:54:09.806Z,7.15
2022-09-25T13:56:41.366Z,5.57
2022-09-25T13:59:13.860Z,7.72
2022-09-25T14:01:53.942Z,7.55
2022-09-25T14:04:36.635Z,7.93
2022-09-25T14:07:25.417Z,11.18
2022-09-25T14:10:00.324Z,6.47
2022-09-25T14:12:42.639Z,6.45
2022-09-25T14:15:22.818Z,9.45
2022-09-25T14:17:57.532Z,7.47
2022-09-25T14:20:29.098Z,9.68
2022-09-25T14:23:11.955Z,8.63
2022-09-25T14:25:46.819Z,5.72
2022-09-25T14:28:30.542Z,7.57
2022-09-25T14:31:31.847Z,5.53
2022-09-25T14:34:21.884Z,5.40
2022-09-25T14:37:15.682Z,7.07
2022-09-25T14:39:54.239Z,7.18
2022-09-25T14:42:45.799Z,6.75
2022-09-25T14:45:35.657Z,4.95
2022-09-25T14:48:31.758Z,6.70
2022-09-25T14:51:25.503Z,6.47
2022-09-25T14:54:02.485Z,5.65
2022-09-25T14:56:36.898Z,6.13
2022-09-25T15:01:49.522Z,4.57
2022-09-25T15:04:32.368Z,5.45
2022-09-25T15:07:23.867Z,5.95
2022-09-25T15:09:56.096Z,5.15
2022-09-25T15:12:33.900Z,5.22
2022-09-25T15:15:13.858Z,5.00
2022-09-25T15:17:50.881Z,4.70
2022-09-25T15:20:27.149Z,6.72
2022-09-25T15:23:03.756Z,5.53
2022-09-25T15:25:47.468Z,4.63
2022-09-25T15:28:25.397Z,4.30
2022-09-25T15:31:03.746Z,4.50
2022-09-25T15:33:38.341Z,6.15
2022-09-25T15:36:22.249Z,6.28
2022-09-25T15:39:09.039Z,7.03
2022-09-25T15:41:45.019Z,5.78
2022-09-25T15:44:25.168Z,7.65
2022-09-25T15:47:00.701Z,6.07
2022-09-25T15:49:43.803Z,5.95
2022-09-25T15:52:32.689Z,6.53
2022-09-25T15:55:14.770Z,7.45
2022-09-25T15:57:51.555Z,6.18
2022-09-25T16:00:44.272Z,7.65
2022-09-25T16:03:43.741Z,8.50
2022-09-25T16:06:16.760Z,8.98
2022-09-25T16:08:48.388Z,6.60
2022-09-25T16:11:26.637Z,9.93
2022-09-25T16:14:29.340Z,12.18
2022-09-25T16:17:01.062Z,8.90
2022-09-25T16:19:34.113Z,9.15
2022-09-25T16:22:23.272Z,7.80
2022-09-25T16:24:55.282Z,10.10
2022-09-25T16:27:32.686Z,9.00
2022-09-25T16:30:09.137Z,9.32
2022-09-25T16:32:48.063Z,8.73
2022-09-25T16:35:57.465Z,10.23
2022-09-25T17:17:32.605Z,8.77
2022-09-25T17:20:04.729Z,10.70
2022-09-25T17:26:10.900Z,13.18
2022-09-25T17:28:42.866Z,12.40
2022-09-25T17:31:16.855Z,15.30
2022-09-25T17:33:50.200Z,11.57
2022-09-25T17:36:22.016Z,13.02
2022-09-25T17:38:53.632Z,11.02
2022-09-25T17:41:36.286Z,11.07
2022-09-25T17:44:13.698Z,11.55
2022-09-25T17:46:45.819Z,12.55
2022-09-25T17:49:18.257Z,9.88
2022-09-25T17:51:50.507Z,13.77
2022-09-25T17:54:22.114Z,11.73
2022-09-25T17:56:53.740Z,13.05
2022-09-25T17:59:25.471Z,12.90
2022-09-25T18:02:01.622Z,12.80
2022-09-25T18:04:33.217Z,12.80
2022-09-25T18:07:06.604Z,12.57
2022-09-25T18:09:38.338Z,12.63
2022-09-25T18:12:12.625Z,13.00
2022-09-25T18:14:45.841Z,13.85
2022-09-25T18:17:17.486Z,15.73
2022-09-25T18:20:09.075Z,12.98
2022-09-25T18:22:41.427Z,13.10
2022-09-25T18:25:13.211Z,11.63
2022-09-25T18:27:45.091Z,15.02
2022-09-25T18:30:21.838Z,11.40
2022-09-25T18:32:53.714Z,11.90
2022-09-25T18:35:25.997Z,12.13
2022-09-25T18:37:59.390Z,16.13
2022-09-25T18:40:31.240Z,14.93
2022-09-25T18:43:02.989Z,15.77
2022-09-25T18:45:35.694Z,14.68
2022-09-25T18:48:08.199Z,13.27
2022-09-25T18:50:45.872Z,18.17
2022-09-25T18:53:20.949Z,17.13
2022-09-25T18:55:58.182Z,15.73
2022-09-25T18:59:00.252Z,19.50
2022-09-25T19:01:32.304Z,16.50
2022-09-25T19:04:07.652Z,18.67
2022-09-25T19:06:43.106Z,16.70
2022-09-25T19:11:49.342Z,18.80
2022-09-25T19:14:22.089Z,19.83
2022-09-25T19:16:53.852Z,18.33
2022-09-25T19:19:25.847Z,16.65
2022-09-25T19:21:57.418Z,16.00
2022-09-25T19:24:30.747Z,17.85
2022-09-25T19:27:12.320Z,16.23
2022-09-25T19:29:47.612Z,14.68
2022-09-25T19:32:19.613Z,14.00
2022-09-25T19:34:51.894Z,17.05
2022-09-25T19:37:26.336Z,15.32
2022-09-25T19:40:16.996Z,16.30
2022-09-25T19:42:49.891Z,16.58
2022-09-25T19:45:22.349Z,15.30
2022-09-25T19:47:54.009Z,13.73
2022-09-25T19:50:25.824Z,14.85
2022-09-25T19:52:57.463Z,15.80
2022-09-25T19:55:36.990Z,14.82
2022-09-25T19:58:10.224Z,15.05
2022-09-25T20:00:42.481Z,12.75
2022-09-25T20:03:14.434Z,15.23
2022-09-25T20:05:48.901Z,14.70
2022-09-25T20:08:21.246Z,13.18
2022-09-25T20:10:52.937Z,11.13
2022-09-25T20:13:30.224Z,12.80
2022-09-25T20:16:14.395Z,12.45
2022-09-25T20:19:03.050Z,14.43
2022-09-25T20:21:37.261Z,12.95
2022-09-25T20:24:10.045Z,13.70
2022-09-25T20:26:41.826Z,12.80
2022-09-25T20:29:15.496Z,15.20
2022-09-25T20:31:51.176Z,13.40
2022-09-25T20:34:24.798Z,16.42
2022-09-25T20:36:56.938Z,14.40
2022-09-25T20:39:28.514Z,13.18
2022-09-25T20:42:00.144Z,15.48
2022-09-25T20:44:31.760Z,12.45
2022-09-25T20:47:03.376Z,16.23
2022-09-25T20:49:36.147Z,15.95
2022-09-25T20:52:09.748Z,13.98
2022-09-25T20:54:41.758Z,15.55
2022-09-25T20:57:13.415Z,16.67
2022-09-25T20:59:45.006Z,16.25
2022-09-25T21:02:16.789Z,13.60
2022-09-25T21:04:50.929Z,15.68
2022-09-25T21:07:25.692Z,13.43
2022-09-25T21:09:57.299Z,10.65
2022-09-25T21:12:28.976Z,8.27
2022-09-25T21:15:03.377Z,9.80
2022-09-25T21:17:35.584Z,11.60
2022-09-25T21:20:07.573Z,11.73
2022-09-25T21:22:40.247Z,10.15
2022-09-25T21:25:11.956Z,9.88
2022-09-25T21:27:43.571Z,9.52
2022-09-25T21:30:15.565Z,11.80
2022-09-25T21:32:47.493Z,10.68
2022-09-25T21:35:19.282Z,10.45
2022-09-25T21:37:50.895Z,12.35
2022-09-25T21:40:22.559Z,11.30
2022-09-25T21:42:55.279Z,10.93
2022-09-25T21:45:31.488Z,10.00
2022-09-25T21:48:03.138Z,9.85
2022-09-25T21:50:34.705Z,9.52
2022-09-25T21:53:06.362Z,10.23
2022-09-25T21:55:37.956Z,11.30
2022-09-25T21:58:09.575Z,11.70
2022-09-25T22:00:41.773Z,11.00
2022-09-25T22:03:13.425Z,11.32
2022-09-25T22:05:45.046Z,10.18
2022-09-25T22:08:16.637Z,11.52
2022-09-25T22:10:58.345Z,11.15
2022-09-25T22:13:33.809Z,10.52
2022-09-25T22:16:13.578Z,13.77
2022-09-25T22:18:49.844Z,11.02
2022-09-25T22:21:26.450Z,11.35
2022-09-25T22:23:59.353Z,11.43
2022-09-25T22:26:36.298Z,10.43
2022-09-25T22:29:08.527Z,11.90
2022-09-25T22:31:43.442Z,11.68
2022-09-25T22:34:22.366Z,11.10
2022-09-25T22:36:59.501Z,11.55
2022-09-25T22:39:31.337Z,13.40
2022-09-25T22:42:04.378Z,12.80
2022-09-25T22:44:37.122Z,11.70
2022-09-25T22:47:09.489Z,12.23
2022-09-25T22:49:41.403Z,12.18
2022-09-25T22:52:13.354Z,12.88
2022-09-25T22:54:46.965Z,13.80
2022-09-25T22:57:18.595Z,16.15
2022-09-25T22:59:50.216Z,17.10
2022-09-25T23:02:21.802Z,16.52
2022-09-25T23:04:54.284Z,14.18
2022-09-25T23:07:25.994Z,14.27
2022-09-25T23:09:57.613Z,14.65
2022-09-25T23:12:30.861Z,15.00
2022-09-25T23:15:03.658Z,15.57
2022-09-25T23:17:38.638Z,16.30
2022-09-25T23:20:10.313Z,17.33
2022-09-25T23:22:41.881Z,18.55
2022-09-25T23:25:16.310Z,17.77
2022-09-25T23:27:47.914Z,17.08
2022-09-25T23:30:19.704Z,16.00
2022-09-25T23:32:51.355Z,14.88
2022-09-25T23:35:25.323Z,16.85
2022-09-25T23:37:57.087Z,15.15
2022-09-25T23:40:29.223Z,16.42
2022-09-25T23:43:01.965Z,18.88
2022-09-25T23:45:33.970Z,16.77
2022-09-25T23:48:09.521Z,15.63
2022-09-25T23:50:43.871Z,15.68
2022-09-25T23:53:15.696Z,15.50
2022-09-25T23:55:47.373Z,14.40
2022-09-25T23:58:19.001Z,15.18
